Data for 09/14/2015

Time Sea-Level Adjusted Pressure Absolute Pressure Temperature Relative Humidity Dew Point   
(mb) (inHg) (mb) (inHg) (C) (F) (%) (C) (F)
00:05 1011 29.85 840 24.81 15.2 59.4 30 -2 28.4
00:10 1011 29.85 840 24.81 15 59.1 31 -2 28.4
00:15 1011 29.85 840 24.81 15 58.9 31 -2 28.4
00:20 1011 29.85 840 24.81 15.1 59.1 31 -1.8 28.7
00:25 1011 29.85 840 24.81 15.1 59.1 31 -2 28.5
00:30 1011 29.85 840 24.81 15 59.1 31 -1.9 28.6
00:35 1011 29.85 840 24.81 15.3 59.5 29 -2.4 27.7
00:40 1011 29.85 840 24.81 15.6 60 31 -1.5 29.3
00:45 1011 29.85 840 24.81 15.1 59.3 31 -1.8 28.8
00:50 1011 29.85 840 24.81 15.2 59.3 32 -1.3 29.6
00:55 1011 29.85 840 24.81 15.1 59.1 32 -1.3 29.7
01:00 1011 29.85 840 24.81 14.9 58.8 33 -1.3 29.7
01:05 1011 29.85 840 24.81 14.9 58.7 32 -1.5 29.3
01:10 1011 29.85 840 24.81 14.9 58.7 33 -1.2 29.8
01:15 1011 29.85 840 24.81 14.9 58.8 34 -0.9 30.4
01:20 1011 29.85 840 24.81 14.7 58.4 34 -0.9 30.3
01:25 1011 29.85 840 24.81 14.4 57.9 35 -0.8 30.6
01:30 1011 29.85 840 24.81 14 57.1 36 -0.7 30.7
01:35 1011 29.85 840 24.81 13.8 56.8 35 -1.5 29.4
01:40 1011 29.85 840 24.81 13.9 57 36 -0.9 30.4
01:45 1011 29.85 840 24.81 13.9 57.1 35 -1.3 29.6
01:50 1011 29.85 840 24.81 14.1 57.4 35 -1.1 30.1
01:55 1011 29.85 840 24.81 14.6 58.2 33 -1.6 29.2
02:00 1011 29.85 840 24.81 14.8 58.7 33 -1 30.2
02:05 1011 29.85 840 24.81 14.5 58 34 -1.1 30
02:10 1011 29.85 840 24.81 14.3 57.7 36 -0.6 31
02:15 1011 29.85 840 24.81 14 57.1 37 -0.4 31.3
02:20 1011 29.85 840 24.81 13.9 56.9 38 -0.2 31.7
02:25 1011 29.85 840 24.81 13.7 56.6 40 0.4 32.7
02:30 1011 29.85 840 24.81 13.4 56 41 0.5 33
02:35 1011 29.85 840 24.81 13.3 55.9 41 0.4 32.8
02:40 1011 29.85 840 24.81 13.1 55.5 42 0.6 33.1
02:45 1011 29.85 840 24.81 13.1 55.6 42 0.7 33.2
02:50 1011 29.85 840 24.81 13.3 55.9 41 0.4 32.7
02:55 1011 29.85 840 24.81 13.2 55.8 40 -0 31.9
03:00 1011 29.85 840 24.81 13.1 55.7 40 0.1 32.1
03:05 1011 29.85 840 24.81 13 55.5 39 -0.4 31.3
03:10 1011 29.85 840 24.81 12.9 55.2 40 -0.5 31.1
03:15 1011 29.85 840 24.81 13 55.3 40 -0.4 31.3
03:20 1011 29.85 840 24.81 12.9 55.2 41 0 32.1
03:25 1010 29.83 840 24.81 12.6 54.7 43 0.4 32.7
03:30 1010 29.83 840 24.81 12.4 54.3 43 0.3 32.6
03:35 1010 29.83 840 24.81 12.4 54.4 43 0.1 32.2
03:40 1010 29.83 840 24.81 12.5 54.5 41 -0.2 31.7
03:45 1010 29.83 840 24.81 12.7 54.8 41 -0.3 31.4
03:50 1010 29.83 840 24.81 12.9 55.1 40 -0.3 31.5
03:55 1011 29.85 840 24.81 12.7 54.8 41 -0.2 31.6
04:00 1011 29.85 840 24.81 12.6 54.7 40 -0.6 31
04:05 1011 29.85 840 24.81 12.6 54.7 40 -0.4 31.3
04:10 1011 29.85 840 24.81 12.7 54.9 40 -0.4 31.3
04:15 1010 29.83 840 24.81 12.7 54.9 40 -0.4 31.2
04:20 1010 29.83 840 24.81 12.5 54.4 40 -0.5 31
04:25 1010 29.83 840 24.81 12.5 54.6 40 -0.6 30.8
04:30 1011 29.85 840 24.81 12.5 54.5 40 -0.6 30.9
04:35 1010 29.83 840 24.81 12.4 54.4 41 -0.4 31.3
04:40 1010 29.83 840 24.81 12.5 54.4 41 -0.5 31.1
04:45 1010 29.83 840 24.81 12.5 54.4 42 -0.2 31.7
04:50 1010 29.83 840 24.81 12.2 53.9 42 -0.3 31.5
04:55 1010 29.83 840 24.81 12.2 53.9 42 -0.2 31.6
05:00 1010 29.83 840 24.81 11.9 53.3 43 -0.3 31.4
05:05 1010 29.83 840 24.81 11.5 52.8 44 -0.3 31.4
05:10 1010 29.83 840 24.81 11.5 52.7 43 -0.5 31
05:15 1010 29.83 840 24.81 11.9 53.3 41 -0.8 30.6
05:20 1010 29.83 840 24.81 12.2 54 40 -0.9 30.4
05:25 1010 29.83 840 24.81 12.2 53.9 40 -1 30.2
05:30 1010 29.83 840 24.81 12.4 54.4 38 -1.3 29.7
05:35 1010 29.83 840 24.81 12.6 54.7 40 -0.7 30.8
05:40 1010 29.83 840 24.81 12.3 54.1 41 -0.4 31.3
05:45 1010 29.83 840 24.81 11.6 52.8 45 0.2 32.4
05:50 1010 29.83 840 24.81 11.1 52 44 -0.5 31
05:55 1010 29.83 840 24.81 11.8 53.2 40 -1.1 30
06:00 1010 29.83 840 24.81 12.5 54.4 38 -1.4 29.4
06:05 1010 29.83 840 24.81 12.6 54.6 38 -1.2 29.8
06:10 1010 29.83 840 24.81 12.9 55.1 37 -1.3 29.7
06:15 1010 29.83 840 24.81 13.2 55.8 37 -1 30.1
06:20 1010 29.83 840 24.81 13.2 55.8 37 -0.9 30.3
06:25 1010 29.83 840 24.81 13 55.3 39 -0.7 30.8
06:30 1010 29.83 840 24.81 12.5 54.5 41 -0.5 31.2
06:35 1011 29.85 840 24.81 12.4 54.2 41 -0.6 30.9
06:40 1011 29.85 840 24.81 12.3 54.2 40 -0.7 30.8
06:45 1011 29.85 840 24.81 12.4 54.3 40 -0.9 30.4
06:50 1011 29.85 840 24.81 12.7 54.8 40 -0.6 30.9
06:55 1011 29.85 840 24.81 12.9 55.1 39 -0.8 30.6
07:00 1011 29.85 840 24.81 13 55.3 39 -0.8 30.6
07:05 1011 29.85 840 24.81 13.2 55.8 39 -0.4 31.3
07:10 1011 29.85 840 24.81 13.5 56.2 38 -0.5 31.2
07:15 1011 29.85 840 24.81 13.9 56.9 37 -0.6 30.9
07:20 1011 29.85 840 24.81 14 57.3 37 -0.3 31.5
07:25 1011 29.85 840 24.81 14.2 57.5 39 0.5 32.8
07:30 1011 29.85 840 24.81 14.1 57.4 39 0.5 33
07:35 1011 29.85 840 24.81 14.2 57.6 38 0.2 32.4
07:40 1011 29.85 840 24.81 14.4 58 37 -0 32
07:45 1011 29.85 840 24.81 14.5 58.1 37 -0 31.9
07:50 1011 29.85 840 24.81 15 58.9 36 0.1 32.1
07:55 1011 29.85 840 24.81 15.3 59.5 36 0.3 32.5
08:00 1011 29.85 840 24.81 15.8 60.5 34 0.3 32.5
08:05 1011 29.85 840 24.81 16.3 61.3 34 0.3 32.6
08:10 1011 29.85 840 24.81 16.9 62.3 34 1.1 34
08:15 1011 29.85 840 24.81 17.5 63.4 33 1.3 34.3
08:20 1011 29.85 840 24.81 17.6 63.7 32 0.9 33.5
08:25 1011 29.85 840 24.81 18.5 65.4 29 0.4 32.7
08:30 1011 29.85 840 24.81 18.5 65.4 29 0.4 32.8
08:35 1011 29.85 840 24.81 18.8 65.8 28 0.2 32.4
08:40 1011 29.85 840 24.81 19.4 66.9 28 0.4 32.8
08:45 1011 29.85 840 24.81 19.3 66.8 28 0.7 33.2
08:50 1011 29.85 840 24.81 19 66.1 28 0.3 32.5
08:55 1011 29.85 840 24.81 19.1 66.4 26 -0.9 30.4
09:00 1011 29.85 840 24.81 19.1 66.4 27 0.1 32.1
09:05 1011 29.85 840 24.81 19.6 67.3 27 0.1 32.3
09:10 1011 29.85 840 24.81 20.2 68.4 25 -0.2 31.7
09:15 1011 29.85 840 24.81 20.6 69 25 -0.1 31.8
09:20 1011 29.85 840 24.81 21.1 70 24 0 32.1
09:25 1011 29.85 840 24.81 21.2 70.2 23 -0.5 31.2
09:30 1011 29.85 840 24.81 21.4 70.5 23 -0.6 30.9
09:35 1011 29.85 840 24.81 21.4 70.6 24 -0 31.9
09:40 1011 29.85 840 24.81 21.8 71.3 23 0 32.1
09:45 1011 29.85 840 24.81 22.2 72 22 -0.2 31.7
09:50 1011 29.85 840 24.81 22.2 71.9 23 0.3 32.5
09:55 1011 29.85 840 24.81 22.4 72.4 22 -0.4 31.2
10:00 1011 29.85 840 24.81 22.6 72.6 20 -1.3 29.6
10:05 1010 29.83 840 24.81 22.9 73.2 21 -0.3 31.5
10:10 1010 29.83 840 24.81 22.5 72.5 20 -1.4 29.5
10:15 1010 29.83 840 24.81 22.6 72.6 20 -1 30.1
10:20 1010 29.83 840 24.81 22.4 72.3 21 -0.8 30.6
10:25 1010 29.83 839 24.78 22.8 73 21 -0.6 30.9
10:30 1010 29.83 839 24.78 23.4 74.1 21 -0.2 31.6
10:35 1010 29.83 839 24.78 23.6 74.5 21 0.2 32.4
10:40 1010 29.83 839 24.78 23.8 74.8 19 -0.8 30.5
10:45 1010 29.83 839 24.78 24.3 75.7 18 -1.1 30
10:50 1010 29.83 839 24.78 24.7 76.4 19 -0.5 31.2
10:55 1010 29.83 839 24.78 24.9 76.8 17 -1.2 29.8
11:00 1010 29.83 839 24.78 24.5 76.1 18 -0.8 30.5
11:05 1010 29.83 839 24.78 24.7 76.4 18 -1.1 30
11:10 1010 29.83 839 24.78 25.9 78.6 15 -2.8 26.9
11:15 1010 29.83 839 24.78 25.7 78.2 15 -2.7 27.2
11:20 1009 29.8 839 24.78 25.3 77.6 16 -1.8 28.8
11:25 1009 29.8 839 24.78 25.4 77.7 16 -1.6 29.1
11:30 1009 29.8 839 24.78 26 78.9 15 -2.5 27.6
11:35 1009 29.8 839 24.78 26 78.8 15 -2.4 27.8
11:40 1009 29.8 839 24.78 25.4 77.7 16 -2.2 28
11:45 1009 29.8 838 24.75 26.3 79.3 14 -2.7 27.1
11:50 1009 29.8 838 24.75 26.2 79.2 15 -2.6 27.3
11:55 1009 29.8 838 24.75 26.5 79.7 14 -3.3 26.1
12:00 1009 29.8 838 24.75 27.4 81.2 14 -2 28.4
12:05 1009 29.8 838 24.75 27.5 81.4 14 -2.1 28.2
12:10 1009 29.8 838 24.75 27.6 81.7 14 -2.1 28.3
12:15 1009 29.8 838 24.75 27.2 80.9 15 -1.5 29.2
12:20 1009 29.8 838 24.75 27.3 81.1 14 -2.2 28
12:25 1009 29.8 838 24.75 26.6 79.9 15 -2.2 28.1
12:30 1009 29.8 838 24.75 26.9 80.4 14 -2.4 27.7
12:35 1009 29.8 838 24.75 27.2 81 13 -2.8 27
12:40 1009 29.8 838 24.75 26.7 80.1 14 -2.3 27.9
12:45 1009 29.8 838 24.75 27.5 81.4 14 -2.2 28
12:50 1009 29.8 838 24.75 27.5 81.5 14 -2.1 28.2
12:55 1008 29.77 838 24.75 27.4 81.3 14 -1.8 28.7
13:00 1008 29.77 838 24.75 28.4 83.2 12 -3.1 26.5
13:05 1008 29.77 838 24.75 28.6 83.4 13 -2 28.3
13:10 1008 29.77 838 24.75 28.6 83.4 12 -3.9 25.1
13:15 1008 29.77 838 24.75 28.2 82.7 11 -4.2 24.4
13:20 1008 29.77 837 24.72 28.3 83 12 -4 24.7
13:25 1008 29.77 837 24.72 28.5 83.2 12 -3.6 25.5
13:30 1008 29.77 837 24.72 28 82.5 13 -3 26.6
13:35 1008 29.77 837 24.72 28.4 83.2 12 -3.4 25.9
13:40 1008 29.77 837 24.72 28.2 82.8 13 -2.5 27.6
13:45 1008 29.77 837 24.72 27.7 81.9 13 -3.2 26.3
13:50 1008 29.77 837 24.72 27.5 81.5 13 -3.3 26.1
13:55 1008 29.77 837 24.72 27.2 81 14 -2.8 27
14:00 1008 29.77 837 24.72 27.4 81.3 13 -2.9 26.8
14:05 1008 29.77 837 24.72 27.1 80.7 14 -2.4 27.7
14:10 1008 29.77 837 24.72 26.7 80.1 14 -2.9 26.8
14:15 1008 29.77 837 24.72 26.6 79.9 15 -2.2 28
14:20 1008 29.77 838 24.75 26.2 79.1 15 -2 28.4
14:25 1008 29.77 838 24.75 25.8 78.4 15 -3 26.7
14:30 1008 29.77 838 24.75 25.6 78 14 -3.2 26.2
14:35 1008 29.77 838 24.75 25.7 78.2 15 -2.9 26.8
14:40 1009 29.8 838 24.75 25.7 78.3 15 -2.8 26.9
14:45 1009 29.8 838 24.75 25.6 78 15 -2.6 27.4
14:50 1009 29.8 838 24.75 25.3 77.6 15 -2.9 26.7
14:55 1009 29.8 838 24.75 25.2 77.4 17 -1.6 29.1
15:00 1009 29.8 838 24.75 24.7 76.4 19 -0.5 31.1
15:05 1009 29.8 838 24.75 24.6 76.3 18 -0.9 30.5
15:10 1009 29.8 838 24.75 25.1 77.1 18 -0.4 31.2
15:15 1009 29.8 838 24.75 25.1 77.2 18 -0.6 31
15:20 1009 29.8 838 24.75 24.8 76.7 19 -0.1 31.8
15:25 1009 29.8 838 24.75 24.8 76.6 20 0.4 32.8
15:30 1009 29.8 838 24.75 24.8 76.6 20 0.8 33.4
15:35 1009 29.8 838 24.75 24.3 75.8 21 0.8 33.4
15:40 1009 29.8 838 24.75 23.9 75 21 0.3 32.6
15:45 1009 29.8 838 24.75 23.7 74.6 21 0.6 33
15:50 1009 29.8 838 24.75 23.6 74.6 22 0.9 33.6
15:55 1009 29.8 838 24.75 23.6 74.5 21 0.5 32.9
16:00 1009 29.8 838 24.75 23.6 74.4 22 1 33.8
16:05 1009 29.8 838 24.75 23.5 74.4 22 1.1 34
16:10 1009 29.8 838 24.75 23.5 74.3 21 0.2 32.4
16:15 1009 29.8 838 24.75 23.6 74.4 22 1.1 34
16:20 1009 29.8 838 24.75 23.5 74.3 25 2.7 36.9
16:25 1009 29.8 838 24.75 23.3 73.9 26 2.7 36.8
16:30 1009 29.8 838 24.75 23.2 73.7 26 2.7 36.9
16:35 1009 29.8 838 24.75 23.3 74 28 4 39.2
16:40 1009 29.8 838 24.75 23.4 74.1 29 4.5 40.1
16:45 1009 29.8 838 24.75 22.9 73.2 28 3.7 38.6
16:50 1009 29.8 838 24.75 22.5 72.6 29 3.6 38.5
16:55 1009 29.8 838 24.75 22.4 72.2 30 4.1 39.4
17:00 1009 29.8 838 24.75 22 71.7 34 5.6 42
17:05 1009 29.8 838 24.75 21.9 71.4 31 4 39.3
17:10 1009 29.8 838 24.75 21.9 71.4 31 4.1 39.5
17:15 1009 29.8 838 24.75 21.8 71.2 31 4.2 39.5
17:20 1009 29.8 838 24.75 21.7 71.1 32 4.4 39.9
17:25 1009 29.8 838 24.75 21.4 70.6 33 4.6 40.3
17:30 1009 29.8 838 24.75 20.9 69.5 33 4.2 39.5
17:35 1009 29.8 838 24.75 20.5 68.9 33 3.7 38.6
17:40 1009 29.8 838 24.75 20.4 68.8 33 3.7 38.6
17:45 1009 29.8 838 24.75 20.4 68.7 33 3.6 38.5
17:50 1009 29.8 838 24.75 20.6 69 32 3.5 38.3
17:55 1009 29.8 838 24.75 20.7 69.2 32 3.6 38.5
18:00 1009 29.8 838 24.75 20.7 69.2 32 3.6 38.4
18:05 1009 29.8 838 24.75 20.4 68.7 33 3.7 38.6
18:10 1009 29.8 838 24.75 20.1 68.2 33 3.4 38.1
18:15 1009 29.8 838 24.75 20 68 33 3.4 38.2
18:20 1009 29.8 838 24.75 19.9 67.8 34 3.6 38.5
18:25 1009 29.8 838 24.75 19.8 67.6 33 3.4 38.1
18:30 1009 29.8 838 24.75 19.6 67.3 34 3.3 38
18:35 1009 29.8 838 24.75 19.5 67.1 34 3.3 37.9
18:40 1009 29.8 838 24.75 19.4 66.9 34 3.2 37.7
18:45 1009 29.8 838 24.75 19.4 67 34 3.3 37.9
18:50 1009 29.8 838 24.75 19.5 67.1 37 4.7 40.5
18:55 1008 29.77 838 24.75 19.3 66.7 37 4.5 40.1
19:00 1008 29.77 838 24.75 19.2 66.6 40 5.5 42
19:05 1008 29.77 838 24.75 19.3 66.7 37 4.5 40.2
19:10 1009 29.8 838 24.75 19 66.3 38 4.4 40
19:15 1009 29.8 838 24.75 18.7 65.6 39 4.4 39.9
19:20 1009 29.8 838 24.75 18.4 65.1 39 4.5 40
19:25 1009 29.8 838 24.75 18.3 64.9 38 3.9 39.1
19:30 1009 29.8 838 24.75 18.4 65.1 40 4.8 40.7
19:35 1009 29.8 838 24.75 18.6 65.5 38 4 39.2
19:40 1009 29.8 838 24.75 18.5 65.3 38 4 39.2
19:45 1008 29.77 838 24.75 18.3 65 38 4 39.1
19:50 1008 29.77 838 24.75 18.3 64.9 39 4.3 39.7
19:55 1009 29.8 838 24.75 18.5 65.3 35 2.9 37.2
20:00 1009 29.8 838 24.75 18.7 65.7 39 4.5 40.1
20:05 1009 29.8 838 24.75 18.2 64.8 38 3.9 39
20:10 1009 29.8 838 24.75 18.1 64.6 39 4 39.1
20:15 1009 29.8 838 24.75 18 64.5 39 4.1 39.3
20:20 1009 29.8 838 24.75 18 64.4 39 4 39.1
20:25 1009 29.8 838 24.75 18.2 64.8 38 3.8 38.8
20:30 1009 29.8 838 24.75 18.5 65.3 37 3.8 38.9
20:35 1009 29.8 838 24.75 18.4 65.2 40 4.6 40.2
20:40 1009 29.8 838 24.75 18.4 65 39 4.4 40
20:45 1009 29.8 838 24.75 18.1 64.6 40 4.4 40
20:50 1009 29.8 838 24.75 18 64.3 39 4 39.2
20:55 1009 29.8 838 24.75 18.3 65 36 3.1 37.5
21:00 1009 29.8 838 24.75 18.9 66 34 2.8 37.1
21:05 1009 29.8 838 24.75 19.7 67.5 36 4.5 40.2
21:10 1009 29.8 838 24.75 19.3 66.7 37 4.4 39.9
21:15 1009 29.8 838 24.75 19.6 67.2 39 5.5 41.9
21:20 1009 29.8 838 24.75 19.2 66.5 42 6.1 42.9
21:25 1009 29.8 838 24.75 19.1 66.3 43 6.3 43.3
21:30 1009 29.8 838 24.75 18.9 65.9 44 6.5 43.8
21:35 1009 29.8 838 24.75 18.6 65.4 48 7.6 45.6
21:40 1009 29.8 838 24.75 18.2 64.7 51 7.9 46.3
21:45 1009 29.8 838 24.75 18.1 64.7 48 7.2 44.9
21:50 1009 29.8 838 24.75 18.1 64.5 46 6.5 43.6
21:55 1009 29.8 838 24.75 18.3 64.9 45 6.2 43.2
22:00 1009 29.8 838 24.75 18.4 65.1 45 6.5 43.6
22:05 1009 29.8 838 24.75 18.3 65 46 6.5 43.7
22:10 1009 29.8 838 24.75 18.3 65 44 5.9 42.6
22:15 1008 29.77 838 24.75 18.6 65.4 43 6 42.7
22:20 1008 29.77 838 24.75 18.6 65.4 44 6.1 43
22:25 1008 29.77 838 24.75 18.5 65.3 44 6.2 43.2
22:30 1008 29.77 837 24.72 18.4 65 44 6 42.8
22:35 1008 29.77 837 24.72 18.2 64.7 44 6 42.7
22:40 1008 29.77 837 24.72 18.1 64.6 44 5.9 42.7
22:45 1008 29.77 837 24.72 18.2 64.7 46 6.6 43.8
22:50 1008 29.77 837 24.72 18.1 64.7 44 5.8 42.5
22:55 1008 29.77 837 24.72 18 64.4 45 5.9 42.6
23:00 1008 29.77 837 24.72 17.7 63.8 48 6.6 43.9
23:05 1008 29.77 837 24.72 17.3 63.2 49 6.7 44.1
23:10 1008 29.77 837 24.72 17.1 62.8 50 6.8 44.2
23:15 1008 29.77 837 24.72 17.2 62.9 51 7.1 44.7
23:20 1007 29.74 837 24.72 17.3 63.2 49 6.5 43.7
23:25 1007 29.74 837 24.72 17.1 62.8 51 7.1 44.8
23:30 1007 29.74 837 24.72 16.9 62.5 51 6.9 44.3
23:35 1007 29.74 836 24.69 16.9 62.4 52 7.1 44.7
23:40 1007 29.74 836 24.69 16.8 62.2 52 7 44.5
23:45 1007 29.74 836 24.69 16.7 62.1 52 7 44.7
23:50 1007 29.74 836 24.69 16.7 62 52 6.9 44.5
23:55 1007 29.74 836 24.69 16.8 62.2 51 6.7 44.1
24:00 1007 29.74 836 24.69 16.9 62.4 50 6.6 43.9